Time;durP1;ratioP1;P1;durP2;ratioP2;P2;SDS_P1;SDS_P2;PMS_P1;PMS_P2;Temp;Humidity;BMP_temperature;BMP_pressure;BME280_temperature;BME280_humidity;BME280_pressure;Samples;Min_cycle;Max_cycle;Signal;HPM_P1;HPM_P2
2023/12/16 00:01:12;;;;;;;14.20;6.10;;;;;;;-2.45;100.00;101379.45;109304;1252;59671;-55
2023/12/16 00:03:40;;;;;;;24.00;6.30;;;;;;;-2.45;100.00;101380.32;109295;1253;59083;-53
2023/12/16 00:06:08;;;;;;;14.80;5.80;;;;;;;-2.43;100.00;101377.50;109260;1253;72667;-64
2023/12/16 00:08:35;;;;;;;18.60;6.50;;;;;;;-2.42;100.00;101369.30;109300;1253;66052;-55
2023/12/16 00:11:03;;;;;;;16.40;5.70;;;;;;;-2.41;100.00;101373.17;109273;1252;72722;-54
2023/12/16 00:13:31;;;;;;;16.00;6.10;;;;;;;-2.38;100.00;101371.66;109247;1253;59678;-54
2023/12/16 00:15:59;;;;;;;16.60;7.00;;;;;;;-2.34;100.00;101363.79;109258;1253;59321;-54
2023/12/16 00:18:27;;;;;;;15.20;5.40;;;;;;;-2.31;100.00;101364.13;109257;1253;74422;-56
2023/12/16 00:20:55;;;;;;;14.30;6.60;;;;;;;-2.31;100.00;101371.83;109350;1252;66011;-54
2023/12/16 00:23:22;;;;;;;13.40;5.80;;;;;;;-2.28;100.00;101377.81;109331;1253;72696;-54
2023/12/16 00:25:50;;;;;;;19.40;7.10;;;;;;;-2.28;100.00;101374.59;109287;1253;60874;-55
2023/12/16 00:28:18;;;;;;;25.70;6.20;;;;;;;-2.25;100.00;101380.88;109254;1253;58777;-57
2023/12/16 00:30:46;;;;;;;15.80;6.50;;;;;;;-2.22;100.00;101382.98;109327;1253;73915;-54
2023/12/16 00:33:14;;;;;;;16.60;6.30;;;;;;;-2.21;100.00;101386.31;109316;1253;66225;-54
2023/12/16 00:35:41;;;;;;;16.20;6.80;;;;;;;-2.16;100.00;101391.38;109280;1253;71729;-54
2023/12/16 00:38:09;;;;;;;24.70;7.90;;;;;;;-2.13;100.00;101396.19;109238;1253;61008;-64
2023/12/16 00:40:37;;;;;;;19.00;7.00;;;;;;;-2.12;100.00;101391.54;109282;1253;60108;-55
2023/12/16 00:43:05;;;;;;;14.50;6.30;;;;;;;-2.10;100.00;101392.60;109323;1253;73953;-57
2023/12/16 00:45:33;;;;;;;15.20;6.30;;;;;;;-2.07;100.00;101386.70;109260;1253;65659;-56
2023/12/16 00:48:00;;;;;;;15.70;6.50;;;;;;;-2.04;100.00;101386.38;109284;1253;72797;-55
2023/12/16 00:50:28;;;;;;;14.80;5.90;;;;;;;-2.01;100.00;101389.61;109268;1253;60527;-55
2023/12/16 00:52:55;;;;;;;19.20;8.60;;;;;;;-1.99;100.00;101398.23;109306;1253;60107;-55
2023/12/16 00:55:24;;;;;;;15.50;5.80;;;;;;;-1.95;100.00;101401.08;109302;1253;72630;-55
2023/12/16 00:57:52;;;;;;;18.80;6.40;;;;;;;-1.94;100.00;101405.64;109263;1253;67081;-55
2023/12/16 01:00:19;;;;;;;13.30;5.20;;;;;;;-1.93;100.00;101404.73;109349;1253;71960;-54
2023/12/16 01:02:47;;;;;;;12.00;5.60;;;;;;;-1.89;100.00;101405.40;109293;1255;58624;-54
2023/12/16 01:05:15;;;;;;;13.70;5.80;;;;;;;-1.87;100.00;101403.91;109360;1253;60057;-53
2023/12/16 01:07:42;;;;;;;13.40;6.70;;;;;;;-1.88;100.00;101409.09;109316;1253;72984;-54
2023/12/16 01:10:10;;;;;;;17.00;5.90;;;;;;;-1.89;100.00;101418.71;109301;1253;65793;-53
2023/12/16 01:12:38;;;;;;;13.10;6.10;;;;;;;-1.89;100.00;101420.73;109247;1253;72692;-54
2023/12/16 01:15:06;;;;;;;17.70;5.00;;;;;;;-1.87;100.00;101426.30;109266;1253;59340;-55
2023/12/16 01:17:34;;;;;;;17.30;7.00;;;;;;;-1.85;100.00;101430.95;109301;1253;60098;-54
2023/12/16 01:20:02;;;;;;;17.40;7.20;;;;;;;-1.87;100.00;101425.06;109304;1253;71964;-54
2023/12/16 01:22:30;;;;;;;15.50;5.80;;;;;;;-1.85;100.00;101431.45;109227;1253;66377;-55
2023/12/16 01:24:57;;;;;;;13.50;5.50;;;;;;;-1.86;100.00;101442.73;109305;1253;72771;-54
2023/12/16 01:27:25;;;;;;;13.30;5.70;;;;;;;-1.84;100.00;101443.50;109234;1253;59333;-55
2023/12/16 01:29:52;;;;;;;11.80;5.30;;;;;;;-1.84;100.00;101439.03;109323;1253;60133;-54
2023/12/16 01:32:20;;;;;;;15.50;5.70;;;;;;;-1.82;100.00;101437.44;109263;1253;73857;-56
2023/12/16 01:34:48;;;;;;;11.00;5.60;;;;;;;-1.81;100.00;101431.76;109306;1253;65806;-55
2023/12/16 01:37:15;;;;;;;11.50;5.40;;;;;;;-1.80;100.00;101436.98;109314;1253;72734;-55
2023/12/16 01:39:43;;;;;;;12.20;6.20;;;;;;;-1.80;100.00;101437.48;109313;1253;59501;-54
2023/12/16 01:42:11;;;;;;;13.30;5.30;;;;;;;-1.79;100.00;101443.23;109273;1253;58880;-63
2023/12/16 01:44:39;;;;;;;15.00;5.90;;;;;;;-1.77;100.00;101449.61;109308;1252;72956;-54
2023/12/16 01:47:06;;;;;;;12.40;5.60;;;;;;;-1.74;100.00;101456.27;109297;1252;65904;-55
2023/12/16 01:49:34;;;;;;;17.40;6.20;;;;;;;-1.72;100.00;101457.70;109327;1253;71570;-54
2023/12/16 01:52:02;;;;;;;12.50;6.40;;;;;;;-1.69;100.00;101457.94;109268;1253;60937;-54
2023/12/16 01:54:31;;;;;;;15.40;6.30;;;;;;;-1.68;100.00;101463.17;109279;1253;60113;-56
2023/12/16 01:56:59;;;;;;;11.10;4.90;;;;;;;-1.66;100.00;101462.73;109282;1253;73949;-54
2023/12/16 01:59:26;;;;;;;11.40;6.20;;;;;;;-1.63;100.00;101467.35;109311;1252;65658;-54
2023/12/16 02:01:54;;;;;;;14.90;6.50;;;;;;;-1.61;100.00;101467.62;109293;1253;71462;-54
2023/12/16 02:04:22;;;;;;;11.30;6.70;;;;;;;-1.62;100.00;101469.36;109276;1253;59655;-54
2023/12/16 02:06:50;;;;;;;15.10;6.10;;;;;;;-1.61;100.00;101470.48;109300;1253;60075;-55
2023/12/16 02:09:19;;;;;;;12.30;5.60;;;;;;;-1.58;100.00;101476.33;109287;1253;73297;-56
2023/12/16 02:11:47;;;;;;;14.00;6.10;;;;;;;-1.59;100.00;101483.16;109364;1253;66946;-53
2023/12/16 02:14:15;;;;;;;15.20;6.40;;;;;;;-1.56;100.00;101480.81;109254;1253;73986;-54
2023/12/16 02:16:42;;;;;;;10.70;5.70;;;;;;;-1.58;100.00;101485.34;109246;1252;63049;-54
2023/12/16 02:19:11;;;;;;;12.70;6.30;;;;;;;-1.57;100.00;101484.94;109314;1255;60144;-54
2023/12/16 02:21:39;;;;;;;8.80;4.70;;;;;;;-1.56;100.00;101488.48;109271;1253;74016;-55
2023/12/16 02:24:07;;;;;;;9.60;4.80;;;;;;;-1.56;100.00;101489.88;109281;1252;65800;-62
2023/12/16 02:26:35;;;;;;;10.70;5.70;;;;;;;-1.56;100.00;101492.58;109389;1252;73045;-53
2023/12/16 02:29:02;;;;;;;11.20;5.20;;;;;;;-1.58;100.00;101494.20;109276;1253;60965;-54
2023/12/16 02:31:30;;;;;;;10.60;5.20;;;;;;;-1.57;100.00;101494.86;109190;1253;60105;-55
2023/12/16 02:33:57;;;;;;;9.80;5.20;;;;;;;-1.58;100.00;101497.96;109301;1253;73941;-54
2023/12/16 02:36:25;;;;;;;9.60;4.90;;;;;;;-1.58;100.00;101500.67;109275;1253;65448;-56
2023/12/16 02:38:53;;;;;;;8.60;5.50;;;;;;;-1.59;100.00;101503.95;109278;1253;72841;-54
2023/12/16 02:41:23;;;;;;;10.00;4.80;;;;;;;-1.58;100.00;101505.98;109322;1253;60949;-54
2023/12/16 02:43:51;;;;;;;9.20;5.30;;;;;;;-1.58;100.00;101508.04;109326;1253;60035;-54
2023/12/16 02:46:18;;;;;;;9.10;4.70;;;;;;;-1.56;100.00;101510.64;109265;1253;72672;-54
2023/12/16 02:48:46;;;;;;;10.30;5.00;;;;;;;-1.60;100.00;101517.46;109308;1253;65676;-53
2023/12/16 02:51:18;;;;;;;7.90;4.70;;;;;;;-1.62;100.00;101517.08;109307;1253;71445;-53
2023/12/16 02:53:45;;;;;;;9.70;4.10;;;;;;;-1.65;100.00;101518.56;109342;1253;59804;-55
2023/12/16 02:56:13;;;;;;;7.10;4.00;;;;;;;-1.67;100.00;101516.82;109255;1253;58843;-54
2023/12/16 02:58:41;;;;;;;6.70;3.70;;;;;;;-1.71;100.00;101518.49;109315;1253;72755;-54
2023/12/16 03:01:09;;;;;;;6.90;3.90;;;;;;;-1.77;100.00;101517.08;109298;1253;65953;-54
2023/12/16 03:03:37;;;;;;;6.50;4.00;;;;;;;-1.83;100.00;101516.55;109316;1253;72732;-54
2023/12/16 03:06:06;;;;;;;10.50;4.80;;;;;;;-1.87;100.00;101518.91;109228;1253;61056;-55
2023/12/16 03:08:34;;;;;;;8.50;4.10;;;;;;;-1.90;100.00;101515.84;109319;1253;59125;-55
2023/12/16 03:11:02;;;;;;;8.80;4.10;;;;;;;-1.97;100.00;101518.40;109314;1253;73886;-54
2023/12/16 03:13:30;;;;;;;7.00;3.40;;;;;;;-2.03;100.00;101518.14;109432;1253;66999;-55
2023/12/16 03:15:57;;;;;;;6.70;3.50;;;;;;;-2.06;100.00;101523.41;109233;1253;71581;-54
2023/12/16 03:18:25;;;;;;;7.30;3.50;;;;;;;-2.09;100.00;101527.13;109268;1253;60947;-54
2023/12/16 03:20:53;;;;;;;6.40;3.60;;;;;;;-2.12;100.00;101532.19;109288;1252;60121;-54
2023/12/16 03:23:20;;;;;;;7.30;3.80;;;;;;;-2.14;100.00;101530.74;109462;1252;72660;-56
2023/12/16 03:25:48;;;;;;;5.60;3.40;;;;;;;-2.15;100.00;101526.88;109283;1253;66945;-62
2023/12/16 03:28:16;;;;;;;7.00;3.50;;;;;;;-2.14;100.00;101527.52;109262;1254;70469;-54
2023/12/16 03:30:44;;;;;;;6.60;3.60;;;;;;;-2.14;100.00;101523.41;109245;1253;60997;-55
2023/12/16 03:33:11;;;;;;;6.60;4.00;;;;;;;-2.13;100.00;101525.10;109266;1253;58995;-54
2023/12/16 03:35:39;;;;;;;7.00;4.10;;;;;;;-2.16;100.00;101526.60;109269;1253;72653;-54
2023/12/16 03:38:07;;;;;;;5.90;3.50;;;;;;;-2.19;100.00;101528.13;109303;1253;65652;-55
2023/12/16 03:40:34;;;;;;;6.10;3.50;;;;;;;-2.24;100.00;101528.30;109282;1253;72504;-54
2023/12/16 03:43:02;;;;;;;6.80;3.30;;;;;;;-2.28;100.00;101529.33;109305;1253;59665;-54
2023/12/16 03:45:30;;;;;;;5.30;3.20;;;;;;;-2.32;100.00;101530.02;109319;1253;58730;-55
2023/12/16 03:47:57;;;;;;;7.70;3.60;;;;;;;-2.36;100.00;101526.11;109269;1253;73624;-54
2023/12/16 03:50:25;;;;;;;6.50;3.20;;;;;;;-2.37;100.00;101529.24;109278;1252;66220;-54
2023/12/16 03:52:53;;;;;;;6.40;3.00;;;;;;;-2.41;100.00;101527.72;109302;1253;71346;-54
2023/12/16 03:55:20;;;;;;;5.80;2.90;;;;;;;-2.47;100.00;101527.46;109249;1252;58431;-56
2023/12/16 03:57:48;;;;;;;5.70;2.70;;;;;;;-2.52;100.00;101533.30;109276;1253;60284;-54
2023/12/16 04:00:16;;;;;;;6.60;3.20;;;;;;;-2.56;100.00;101533.67;109293;1253;73969;-54
2023/12/16 04:02:44;;;;;;;6.10;3.30;;;;;;;-2.62;100.00;101537.67;109419;1253;66946;-54
2023/12/16 04:05:12;;;;;;;4.90;2.90;;;;;;;-2.69;100.00;101537.80;109267;1253;72746;-54
2023/12/16 04:07:40;;;;;;;6.60;2.70;;;;;;;-2.76;100.00;101535.17;109249;1257;59535;-54
2023/12/16 04:10:08;;;;;;;5.50;2.90;;;;;;;-2.81;100.00;101535.58;109209;1253;58835;-54
2023/12/16 04:12:36;;;;;;;8.60;3.20;;;;;;;-2.87;100.00;101535.85;109304;1253;73972;-54
2023/12/16 04:15:04;;;;;;;5.30;2.90;;;;;;;-2.91;100.00;101535.52;109273;1252;67261;-55
2023/12/16 04:17:32;;;;;;;5.60;3.30;;;;;;;-2.95;100.00;101534.81;109300;1253;72708;-54
2023/12/16 04:20:00;;;;;;;5.60;2.90;;;;;;;-3.07;100.00;101532.42;109225;1253;58126;-57
2023/12/16 04:22:28;;;;;;;5.80;3.20;;;;;;;-3.10;100.00;101537.32;109375;1253;59158;-55
2023/12/16 04:24:58;;;;;;;8.20;4.50;;;;;;;-3.15;100.00;101547.06;109309;1252;72586;-55
2023/12/16 04:27:26;;;;;;;6.60;4.00;;;;;;;-3.24;100.00;101551.34;109291;1253;67074;-53
2023/12/16 04:29:54;;;;;;;5.40;3.10;;;;;;;-3.32;100.00;101550.96;109230;1253;72741;-63
2023/12/16 04:32:21;;;;;;;8.20;3.60;;;;;;;-3.36;100.00;101554.22;109276;1253;60880;-54
2023/12/16 04:34:49;;;;;;;5.50;3.60;;;;;;;-3.42;100.00;101560.37;109355;1253;60110;-54
2023/12/16 04:37:17;;;;;;;5.40;3.30;;;;;;;-3.46;100.00;101565.61;109404;1253;72609;-54
2023/12/16 04:39:44;;;;;;;5.80;3.30;;;;;;;-3.50;100.00;101567.98;109293;1253;65634;-62
2023/12/16 04:42:12;;;;;;;6.00;3.50;;;;;;;-3.54;100.00;101571.39;109283;1253;72669;-54
2023/12/16 04:44:39;;;;;;;6.70;3.50;;;;;;;-3.58;100.00;101569.35;109302;1253;60920;-54
2023/12/16 04:47:07;;;;;;;6.30;3.90;;;;;;;-3.59;100.00;101567.71;109293;1253;60103;-54
2023/12/16 04:49:35;;;;;;;5.90;3.40;;;;;;;-3.60;100.00;101575.88;109237;1252;72683;-56
2023/12/16 04:52:03;;;;;;;5.90;3.40;;;;;;;-3.60;100.00;101576.92;109340;1253;67048;-53
2023/12/16 04:54:31;;;;;;;5.80;3.20;;;;;;;-3.63;100.00;101580.26;109406;1252;72710;-54
2023/12/16 04:56:58;;;;;;;6.40;3.40;;;;;;;-3.64;100.00;101588.78;109264;1253;59665;-54
2023/12/16 04:59:26;;;;;;;6.60;3.70;;;;;;;-3.69;100.00;101599.48;109197;1253;60076;-54
2023/12/16 05:01:54;;;;;;;7.60;4.00;;;;;;;-3.71;100.00;101602.45;109301;1252;74656;-53
2023/12/16 05:04:22;;;;;;;8.60;3.50;;;;;;;-3.75;100.00;101602.60;109306;1252;67443;-55
2023/12/16 05:06:50;;;;;;;6.70;3.80;;;;;;;-3.79;100.00;101609.55;109292;1253;72711;-54
2023/12/16 05:09:21;;;;;;;;;;;;;;;-3.86;100.00;101610.17;109243;1253;58157;-54
2023/12/16 05:11:48;;;;;;;7.90;4.20;;;;;;;-3.94;100.00;101615.86;109288;1253;58856;-54
2023/12/16 05:14:16;;;;;;;9.00;5.20;;;;;;;-4.02;100.00;101626.02;109260;1253;72501;-54
2023/12/16 05:16:44;;;;;;;9.90;4.90;;;;;;;-4.09;100.00;101629.86;109303;1252;67364;-54
2023/12/16 05:19:11;;;;;;;9.20;5.20;;;;;;;-4.16;100.00;101634.52;109309;1253;70438;-54
2023/12/16 05:21:39;;;;;;;12.50;5.80;;;;;;;-4.20;100.00;101638.89;109227;1253;59729;-53
2023/12/16 05:24:06;;;;;;;7.40;3.90;;;;;;;-4.22;100.00;101644.07;109297;1253;59226;-53
2023/12/16 05:26:34;;;;;;;9.40;4.80;;;;;;;-4.21;100.00;101643.67;109282;1253;73910;-54
2023/12/16 05:29:02;;;;;;;9.40;5.00;;;;;;;-4.17;100.00;101644.20;109335;1253;65837;-55
2023/12/16 05:31:29;;;;;;;10.20;5.40;;;;;;;-4.10;100.00;101646.70;109277;1253;71359;-62
2023/12/16 05:33:57;;;;;;;9.50;4.80;;;;;;;-3.94;100.00;101651.87;109285;1253;60887;-54
2023/12/16 05:36:25;;;;;;;7.50;4.60;;;;;;;-3.70;100.00;101651.52;109305;1253;60081;-56
2023/12/16 05:38:52;;;;;;;7.60;4.40;;;;;;;-3.40;100.00;101652.91;109272;1253;74305;-54
2023/12/16 05:41:20;;;;;;;8.40;4.90;;;;;;;-3.07;100.00;101646.55;109277;1253;64746;-54
2023/12/16 05:43:47;;;;;;;8.20;4.60;;;;;;;-2.73;100.00;101644.30;109237;1253;71612;-54
2023/12/16 05:46:15;;;;;;;7.90;3.60;;;;;;;-2.37;100.00;101648.04;109262;1253;59345;-56
2023/12/16 05:48:42;;;;;;;6.30;3.10;;;;;;;-2.02;100.00;101655.56;109308;1253;59737;-55
2023/12/16 05:51:10;;;;;;;6.70;3.70;;;;;;;-1.65;100.00;101662.23;109327;1252;73919;-54
2023/12/16 05:53:38;;;;;;;6.10;3.90;;;;;;;-1.33;100.00;101660.80;109242;1253;66861;-62
2023/12/16 05:56:06;;;;;;;6.60;3.60;;;;;;;-1.06;100.00;101659.48;109318;1253;72759;-54
2023/12/16 05:58:34;;;;;;;5.70;3.50;;;;;;;-0.75;100.00;101659.88;109305;1253;60924;-54
2023/12/16 06:01:01;;;;;;;5.80;3.20;;;;;;;-0.49;100.00;101660.96;109303;1253;60063;-54
2023/12/16 06:03:29;;;;;;;5.50;3.30;;;;;;;-0.24;100.00;101664.65;109173;1253;73949;-54
2023/12/16 06:05:57;;;;;;;5.70;3.30;;;;;;;-0.05;100.00;101663.67;109281;1256;66221;-55
2023/12/16 06:08:24;;;;;;;4.90;2.60;;;;;;;0.14;100.00;101669.86;109289;1253;72030;-54
2023/12/16 06:10:52;;;;;;;5.00;2.90;;;;;;;0.36;100.00;101678.61;109262;1253;60927;-54
2023/12/16 06:13:20;;;;;;;5.10;3.30;;;;;;;0.58;100.00;101684.95;109317;1253;60154;-54
2023/12/16 06:15:47;;;;;;;5.40;3.30;;;;;;;0.78;100.00;101679.73;109313;1254;72555;-64
2023/12/16 06:18:19;;;;;;;5.40;3.00;;;;;;;0.91;100.00;101676.93;109317;1253;65614;-54
2023/12/16 06:20:46;;;;;;;6.20;3.80;;;;;;;1.06;100.00;101676.28;109357;1253;71487;-54
2023/12/16 06:23:14;;;;;;;5.80;3.80;;;;;;;1.25;100.00;101676.91;109288;1253;58300;-55
2023/12/16 06:25:42;;;;;;;6.50;4.00;;;;;;;1.39;100.00;101673.02;109324;1253;60107;-57
2023/12/16 06:28:09;;;;;;;5.90;3.50;;;;;;;1.53;100.00;101677.04;109268;1253;73282;-55
2023/12/16 06:30:39;;;;;;;6.80;3.60;;;;;;;1.71;100.00;101681.64;109329;1253;67058;-55
2023/12/16 06:33:07;;;;;;;6.10;4.00;;;;;;;1.88;100.00;101686.58;109332;1253;72741;-54
2023/12/16 06:35:35;;;;;;;6.80;4.80;;;;;;;1.98;100.00;101685.66;109268;1253;59347;-55
2023/12/16 06:38:02;;;;;;;6.00;3.90;;;;;;;2.06;100.00;101676.20;109246;1253;58810;-67
2023/12/16 06:40:31;;;;;;;7.10;4.50;;;;;;;2.17;100.00;101666.17;109248;1253;73227;-54
2023/12/16 06:42:59;;;;;;;6.10;4.10;;;;;;;2.26;100.00;101661.17;109435;1252;67042;-54
2023/12/16 06:45:28;;;;;;;6.20;4.20;;;;;;;2.39;100.00;101656.06;109309;1253;72739;-55
2023/12/16 06:47:55;;;;;;;6.60;4.30;;;;;;;2.54;100.00;101656.31;109261;1253;59312;-58
2023/12/16 06:50:23;;;;;;;6.30;4.20;;;;;;;2.65;100.00;101660.38;109449;1253;58772;-55
2023/12/16 06:52:51;;;;;;;5.90;3.70;;;;;;;2.77;100.00;101660.38;109461;1253;74708;-53
2023/12/16 06:55:18;;;;;;;7.20;3.50;;;;;;;2.88;100.00;101658.04;109302;1253;66955;-55
2023/12/16 06:57:46;;;;;;;5.20;3.50;;;;;;;2.98;100.00;101660.73;109294;1253;72723;-56
2023/12/16 07:00:14;;;;;;;7.20;4.10;;;;;;;3.08;100.00;101664.19;109245;1253;59375;-60
2023/12/16 07:02:43;;;;;;;6.20;4.40;;;;;;;3.16;100.00;101667.59;109321;1257;60070;-56
2023/12/16 07:05:11;;;;;;;7.10;4.90;;;;;;;3.17;100.00;101664.78;109368;1253;73936;-56
2023/12/16 07:07:39;;;;;;;5.80;3.60;;;;;;;3.26;100.00;101658.88;109401;1253;66928;-54
2023/12/16 07:10:07;;;;;;;7.40;4.50;;;;;;;3.33;100.00;101659.60;109297;1253;72051;-59
2023/12/16 07:12:35;;;;;;;6.90;4.70;;;;;;;3.35;100.00;101652.30;109260;1253;58221;-55
2023/12/16 07:15:02;;;;;;;6.70;4.20;;;;;;;3.40;100.00;101644.21;109308;1253;60104;-54
2023/12/16 07:17:30;;;;;;;6.50;3.70;;;;;;;3.41;100.00;101635.69;109333;1253;72637;-55
2023/12/16 07:19:58;;;;;;;5.20;3.50;;;;;;;3.47;100.00;101631.91;109283;1253;67165;-54
2023/12/16 07:22:27;;;;;;;6.00;3.80;;;;;;;3.41;100.00;101631.42;109291;1253;72699;-58
2023/12/16 07:24:58;;;;;;;8.70;3.80;;;;;;;3.35;100.00;101629.41;109436;1253;59320;-55
2023/12/16 07:27:30;;;;;;;5.80;3.60;;;;;;;3.42;100.00;101633.60;109347;1253;58717;-55
2023/12/16 07:29:58;;;;;;;5.30;3.40;;;;;;;3.51;100.00;101630.89;109368;1253;73988;-54
2023/12/16 07:32:26;;;;;;;5.10;3.30;;;;;;;3.50;100.00;101633.89;109270;1252;65504;-57
2023/12/16 07:34:54;;;;;;;5.10;3.50;;;;;;;3.48;100.00;101638.98;109337;1253;72714;-54
2023/12/16 07:37:21;;;;;;;4.80;3.20;;;;;;;3.47;100.00;101641.81;109270;1253;58129;-56
2023/12/16 07:39:49;;;;;;;5.90;4.00;;;;;;;3.45;100.00;101633.57;109263;1253;60211;-58
2023/12/16 07:42:17;;;;;;;5.80;3.50;;;;;;;3.49;100.00;101625.56;109320;1256;72670;-62
2023/12/16 07:44:44;;;;;;;5.50;3.40;;;;;;;3.52;100.00;101627.21;109343;1252;65491;-58
2023/12/16 07:47:12;;;;;;;5.30;3.80;;;;;;;3.56;100.00;101628.80;109318;1253;71525;-56
2023/12/16 07:49:39;;;;;;;4.80;3.40;;;;;;;3.61;100.00;101635.05;109306;1253;59335;-56
2023/12/16 07:52:08;;;;;;;5.60;3.50;;;;;;;3.60;100.00;101636.97;108930;1252;444372;-59
2023/12/16 07:54:36;;;;;;;5.90;3.80;;;;;;;3.56;100.00;101636.73;109214;1256;75111;-58
2023/12/16 07:57:03;;;;;;;6.20;4.10;;;;;;;3.52;100.00;101635.66;109268;1253;66939;-57
2023/12/16 07:59:31;;;;;;;5.60;3.70;;;;;;;3.42;100.00;101630.65;109261;1253;71461;-58
2023/12/16 08:02:03;;;;;;;5.80;4.00;;;;;;;3.37;100.00;101634.27;109126;1253;58175;-58
2023/12/16 08:04:31;;;;;;;6.00;4.10;;;;;;;3.36;100.00;101634.83;109235;1253;60668;-57
2023/12/16 08:06:59;;;;;;;5.70;4.00;;;;;;;3.33;100.00;101627.66;109298;1253;73856;-57
2023/12/16 08:09:27;;;;;;;5.90;4.40;;;;;;;3.29;100.00;101626.71;109293;1252;66270;-57
2023/12/16 08:11:58;;;;;;;6.50;4.50;;;;;;;3.23;100.00;101628.84;109257;1254;71603;-57
2023/12/16 08:14:25;;;;;;;4.90;3.70;;;;;;;3.16;100.00;101631.02;109228;1253;58191;-60
2023/12/16 08:16:53;;;;;;;6.20;4.80;;;;;;;3.07;100.00;101631.23;109268;1253;59469;-58
2023/12/16 08:19:20;;;;;;;7.10;4.30;;;;;;;3.06;100.00;101633.06;109279;1253;72672;-57
2023/12/16 08:21:48;;;;;;;5.40;3.80;;;;;;;3.03;100.00;101642.54;109277;1253;67415;-58
2023/12/16 08:24:16;;;;;;;6.40;4.20;;;;;;;3.00;100.00;101640.83;109268;1253;71528;-58
2023/12/16 08:26:47;;;;;;;6.00;4.60;;;;;;;3.05;100.00;101633.30;109250;1253;59261;-58
2023/12/16 08:29:18;;;;;;;6.80;5.10;;;;;;;3.10;100.00;101625.60;109308;1253;60235;-58
2023/12/16 08:31:46;;;;;;;6.60;4.60;;;;;;;3.08;100.00;101627.73;109369;1253;73957;-58
2023/12/16 08:34:14;;;;;;;7.10;5.10;;;;;;;3.03;100.00;101632.08;109262;1253;65870;-59
2023/12/16 08:36:42;;;;;;;6.30;4.50;;;;;;;2.95;100.00;101626.74;109251;1253;71873;-59
2023/12/16 08:39:09;;;;;;;6.20;4.40;;;;;;;2.91;100.00;101621.48;109274;1253;59419;-59
2023/12/16 08:41:37;;;;;;;6.20;4.40;;;;;;;2.83;100.00;101618.41;109273;1253;60028;-59
2023/12/16 08:44:05;;;;;;;6.40;4.50;;;;;;;2.80;100.00;101622.70;109287;1253;74117;-59
2023/12/16 08:46:39;;;;;;;6.20;4.70;;;;;;;2.87;100.00;101627.23;109255;1253;65020;-60
2023/12/16 08:49:06;;;;;;;6.40;4.50;;;;;;;2.97;100.00;101629.50;109285;1253;72840;-59
2023/12/16 08:51:34;;;;;;;7.00;4.50;;;;;;;3.08;100.00;101625.70;109297;1253;59379;-60
2023/12/16 08:54:02;;;;;;;6.60;4.50;;;;;;;3.10;100.00;101625.73;109287;1253;60074;-60
2023/12/16 08:56:29;;;;;;;5.90;4.20;;;;;;;3.13;100.00;101619.34;109216;1253;72655;-62
2023/12/16 08:58:57;;;;;;;6.60;4.30;;;;;;;3.13;100.00;101617.95;109293;1253;67049;-60
2023/12/16 09:01:25;;;;;;;7.80;4.70;;;;;;;3.14;100.00;101619.11;109287;1253;72503;-61
2023/12/16 09:03:53;;;;;;;6.80;4.90;;;;;;;3.11;100.00;101618.94;109295;1253;58168;-61
2023/12/16 09:06:21;;;;;;;5.70;4.00;;;;;;;3.02;100.00;101621.80;109263;1256;58850;-61
2023/12/16 09:08:49;;;;;;;6.90;4.90;;;;;;;3.00;100.00;101626.22;109313;1253;73934;-62
2023/12/16 09:11:17;;;;;;;6.80;4.40;;;;;;;3.07;100.00;101622.14;109343;1253;67525;-62
2023/12/16 09:13:44;;;;;;;6.20;4.60;;;;;;;3.12;100.00;101616.32;109268;1254;72735;-62
2023/12/16 09:16:12;;;;;;;5.90;4.60;;;;;;;3.08;100.00;101611.60;109334;1253;58169;-61
2023/12/16 09:18:40;;;;;;;7.10;5.50;;;;;;;3.07;100.00;101607.05;109234;1253;60646;-60
2023/12/16 09:21:08;;;;;;;7.60;4.80;;;;;;;3.02;100.00;101605.65;109305;1253;73941;-62
2023/12/16 09:23:35;;;;;;;7.20;5.50;;;;;;;2.96;100.00;101602.14;109324;1253;67084;-63
2023/12/16 09:26:03;;;;;;;6.50;4.60;;;;;;;2.93;100.00;101599.36;109297;1253;71121;-64
2023/12/16 09:28:31;;;;;;;6.90;4.50;;;;;;;2.93;100.00;101591.63;109307;1253;58366;-64
2023/12/16 09:30:58;;;;;;;7.20;4.50;;;;;;;2.93;100.00;101589.05;109262;1253;58779;-62
2023/12/16 09:33:26;;;;;;;6.70;4.30;;;;;;;2.99;100.00;101589.35;109331;1253;76041;-59
2023/12/16 09:35:54;;;;;;;5.80;4.50;;;;;;;3.01;100.00;101589.57;109312;1253;65942;-61
2023/12/16 09:38:22;;;;;;;6.80;4.90;;;;;;;2.92;100.00;101586.73;109276;1253;71460;-60
2023/12/16 09:40:49;;;;;;;7.30;4.80;;;;;;;2.87;100.00;101595.64;109228;1253;58652;-63
2023/12/16 09:43:17;;;;;;;8.50;4.50;;;;;;;2.82;100.00;101590.83;109428;1253;58742;-61
2023/12/16 09:45:48;;;;;;;6.40;4.20;;;;;;;2.84;100.00;101587.08;109318;1252;73882;-61
2023/12/16 09:48:16;;;;;;;6.90;4.90;;;;;;;2.83;100.00;101581.68;109361;1256;65658;-62
2023/12/16 09:50:45;;;;;;;6.70;4.50;;;;;;;2.76;100.00;101582.84;109207;1253;73079;-62
2023/12/16 09:53:12;;;;;;;8.90;5.80;;;;;;;2.72;100.00;101586.30;109127;1253;58503;-61
2023/12/16 09:55:41;;;;;;;7.80;5.00;;;;;;;2.72;100.00;101587.04;109303;1253;58815;-62
2023/12/16 09:58:13;;;;;;;8.20;5.20;;;;;;;2.64;100.00;101588.58;109324;1253;74104;-61
2023/12/16 10:00:43;;;;;;;7.30;4.80;;;;;;;2.50;100.00;101584.50;109300;1253;67097;-61
2023/12/16 10:03:14;;;;;;;9.00;5.50;;;;;;;2.32;100.00;101589.40;109286;1253;71507;-60
2023/12/16 10:05:43;;;;;;;7.90;5.80;;;;;;;2.12;100.00;101589.61;108990;1253;58140;-61
2023/12/16 10:08:12;;;;;;;9.20;5.80;;;;;;;1.83;100.00;101591.11;109257;1253;59124;-61
2023/12/16 10:10:39;;;;;;;8.10;5.30;;;;;;;1.58;100.00;101593.77;109280;1253;73908;-61
2023/12/16 10:13:10;;;;;;;8.90;5.80;;;;;;;1.45;100.00;101597.48;109326;1253;67538;-61
2023/12/16 10:15:38;;;;;;;7.80;5.10;;;;;;;1.39;100.00;101599.02;109269;1253;72876;-61
2023/12/16 10:18:06;;;;;;;7.10;5.20;;;;;;;1.36;100.00;101598.19;109111;1253;59503;-62
2023/12/16 10:20:34;;;;;;;6.40;4.30;;;;;;;1.29;100.00;101605.77;109282;1253;58864;-62
2023/12/16 10:23:02;;;;;;;6.40;4.50;;;;;;;1.29;100.00;101605.64;109268;1252;72646;-61
2023/12/16 10:25:31;;;;;;;6.80;5.00;;;;;;;1.28;100.00;101603.27;109291;1253;67058;-61
2023/12/16 10:28:02;;;;;;;7.00;4.90;;;;;;;1.28;100.00;101603.77;109112;1253;71614;-62
2023/12/16 10:30:30;;;;;;;8.50;5.40;;;;;;;1.28;100.00;101605.70;109188;1253;58333;-61
2023/12/16 10:33:02;;;;;;;8.70;4.90;;;;;;;1.27;100.00;101611.39;109427;1252;60092;-61
2023/12/16 10:35:30;;;;;;;;;;;;;;;1.22;100.00;101615.58;109418;1253;73893;-63
2023/12/16 10:37:58;;;;;;;6.90;4.50;;;;;;;1.18;100.00;101617.71;109293;1257;66944;-61
2023/12/16 10:40:26;;;;;;;9.20;6.00;;;;;;;1.15;100.00;101616.22;109369;1253;71903;-62
2023/12/16 10:42:54;;;;;;;8.80;5.30;;;;;;;1.19;100.00;101617.15;109357;1252;58711;-61
2023/12/16 10:45:22;;;;;;;6.90;4.70;;;;;;;1.25;100.00;101617.19;109425;1252;60208;-62
2023/12/16 10:47:50;;;;;;;9.70;5.40;;;;;;;1.26;100.00;101623.08;109396;1253;73951;-65
2023/12/16 10:50:18;;;;;;;8.40;5.40;;;;;;;1.27;100.00;101619.11;109216;1253;67435;-61
2023/12/16 10:52:51;;;;;;;7.20;4.60;;;;;;;1.27;100.00;101621.48;109199;1254;71437;-62
2023/12/16 10:55:23;;;;;;;7.40;5.10;;;;;;;1.30;100.00;101630.07;109394;1255;59372;-62
2023/12/16 10:58:00;;;;;;;7.30;4.70;;;;;;;1.36;100.00;101625.73;109177;1253;58502;-62
2023/12/16 11:00:28;;;;;;;7.90;5.30;;;;;;;1.40;100.00;101622.75;109324;1254;72476;-62
2023/12/16 11:03:00;;;;;;;7.20;5.20;;;;;;;1.44;100.00;101615.52;109392;1252;67380;-62
2023/12/16 11:05:29;;;;;;;7.60;5.00;;;;;;;1.47;100.00;101618.27;109355;1254;75116;-62
2023/12/16 11:07:57;;;;;;;7.80;5.30;;;;;;;1.53;100.00;101628.31;109342;1254;59795;-62
2023/12/16 11:10:25;;;;;;;9.00;6.40;;;;;;;1.58;100.00;101622.74;109432;1253;62817;-62
2023/12/16 11:12:53;;;;;;;8.20;5.40;;;;;;;1.59;100.00;101625.26;109365;1254;72712;-61
2023/12/16 11:15:21;;;;;;;7.60;4.80;;;;;;;1.59;100.00;101621.30;109404;1254;67107;-60